Time;durP1;ratioP1;P1;durP2;ratioP2;P2;SDS_P1;SDS_P2;PMS_P1;PMS_P2;Temp;Humidity;BMP_temperature;BMP_pressure;BME280_temperature;BME280_humidity;BME280_pressure;Samples;Min_cycle;Max_cycle;Signal;HPM_P1;HPM_P2
2021/11/13 00:01:07;;;;;;;130.20;39.42;;;3.00;99.90;;;;;;5012963;28;20014;-73
2021/11/13 00:03:33;;;;;;;150.05;44.35;;;3.00;99.90;;;;;;5012961;28;20026;-74
2021/11/13 00:05:59;;;;;;;177.63;45.83;;;3.00;99.90;;;;;;5012779;28;20109;-74
2021/11/13 00:08:24;;;;;;;134.60;38.40;;;3.00;99.90;;;;;;5012878;28;20025;-73
2021/11/13 00:10:50;;;;;;;117.32;36.20;;;2.90;99.90;;;;;;5011661;28;20038;-73
2021/11/13 00:13:19;;;;;;;127.45;40.22;;;2.90;99.90;;;;;;5011562;28;20049;-73
2021/11/13 00:15:44;;;;;;;130.60;38.75;;;2.80;99.90;;;;;;5012772;28;20057;-73
2021/11/13 00:18:11;;;;;;;107.13;37.05;;;2.80;99.90;;;;;;5014834;28;20492;-73
2021/11/13 00:20:37;;;;;;;106.97;34.28;;;2.80;99.90;;;;;;5016465;28;20157;-73
2021/11/13 00:23:03;;;;;;;109.65;37.38;;;2.80;99.90;;;;;;5015372;28;20097;-74
2021/11/13 00:25:29;;;;;;;128.85;33.60;;;2.80;99.90;;;;;;5016570;28;20101;-74
2021/11/13 00:27:55;;;;;;;103.13;35.72;;;2.70;99.90;;;;;;5016501;28;20033;-73
2021/11/13 00:30:21;;;;;;;106.53;35.90;;;2.70;99.90;;;;;;5016484;28;20093;-73
2021/11/13 00:32:47;;;;;;;96.65;31.40;;;2.70;99.90;;;;;;5016398;28;20064;-73
2021/11/13 00:35:13;;;;;;;98.88;30.67;;;2.70;99.90;;;;;;5015129;28;20387;-73
2021/11/13 00:37:39;;;;;;;133.95;41.80;;;2.60;99.90;;;;;;5016313;28;20044;-73
2021/11/13 00:40:08;;;;;;;89.70;34.60;;;2.60;99.90;;;;;;5016262;28;20415;-74
2021/11/13 00:42:37;;;;;;;137.95;50.58;;;2.60;99.90;;;;;;5016273;28;20029;-73
2021/11/13 00:45:04;;;;;;;148.27;49.50;;;2.70;99.90;;;;;;5016206;28;20022;-74
2021/11/13 00:47:29;;;;;;;106.28;33.45;;;2.70;99.90;;;;;;5016141;28;20050;-73
2021/11/13 00:49:55;;;;;;;108.50;35.08;;;2.60;99.90;;;;;;5016029;28;20064;-74
2021/11/13 00:52:21;;;;;;;108.25;33.92;;;2.70;99.90;;;;;;5016049;28;20030;-74
2021/11/13 00:54:46;;;;;;;113.10;33.40;;;2.70;99.90;;;;;;5015987;28;20029;-74
2021/11/13 00:57:12;;;;;;;97.45;34.45;;;2.60;99.90;;;;;;5016022;28;20468;-73
2021/11/13 00:59:38;;;;;;;118.82;36.80;;;2.60;99.90;;;;;;5015886;28;20065;-74
2021/11/13 01:02:06;;;;;;;104.07;34.00;;;2.60;99.90;;;;;;5015948;28;20049;-74
2021/11/13 01:04:32;;;;;;;89.60;34.45;;;2.60;99.90;;;;;;5015812;28;20494;-73
2021/11/13 01:06:58;;;;;;;112.85;33.70;;;2.60;99.90;;;;;;5015860;28;20026;-74
2021/11/13 01:09:23;;;;;;;99.03;31.60;;;2.60;99.90;;;;;;5014495;28;20037;-74
2021/11/13 01:11:49;;;;;;;101.07;33.22;;;2.60;99.90;;;;;;5015745;28;20022;-73
2021/11/13 01:14:15;;;;;;;99.68;32.85;;;2.60;99.90;;;;;;5015639;28;20049;-74
2021/11/13 01:16:40;;;;;;;96.63;34.80;;;2.60;99.90;;;;;;5015623;28;20026;-74
2021/11/13 01:19:07;;;;;;;96.32;32.55;;;2.60;99.90;;;;;;5015572;28;20037;-74
2021/11/13 01:21:33;;;;;;;89.35;28.55;;;2.50;99.90;;;;;;5015496;28;20053;-74
2021/11/13 01:23:59;;;;;;;87.30;30.27;;;2.60;99.90;;;;;;5015515;28;20030;-74
2021/11/13 01:26:26;;;;;;;84.13;28.92;;;2.60;99.90;;;;;;5015690;28;20475;-73
2021/11/13 01:28:51;;;;;;;93.43;33.53;;;2.60;99.90;;;;;;5028937;28;20148;-74
2021/11/13 01:31:18;;;;;;;111.55;30.67;;;2.50;99.90;;;;;;5024011;28;20090;-73
2021/11/13 01:33:45;;;;;;;109.45;35.42;;;2.60;99.90;;;;;;5016730;28;20054;-73
2021/11/13 01:36:12;;;;;;;90.45;30.90;;;2.60;99.90;;;;;;5033767;28;20399;-73
2021/11/13 01:38:38;;;;;;;104.25;30.73;;;2.60;99.90;;;;;;5029393;28;20029;-74
2021/11/13 01:41:07;;;;;;;98.55;32.55;;;2.60;99.90;;;;;;5013903;28;20032;-74
2021/11/13 01:43:39;;;;;;;91.35;30.10;;;2.50;99.90;;;;;;5015094;28;20113;-74
2021/11/13 01:46:06;;;;;;;81.32;27.70;;;2.60;99.90;;;;;;5015328;28;20029;-74
2021/11/13 01:48:32;;;;;;;99.38;29.25;;;2.60;99.90;;;;;;5014973;28;20018;-73
2021/11/13 01:50:58;;;;;;;84.30;30.45;;;2.60;99.90;;;;;;5034721;28;20083;-74
2021/11/13 01:53:24;;;;;;;84.22;28.65;;;2.60;99.90;;;;;;5034648;28;20029;-74
2021/11/13 01:55:54;;;;;;;106.47;31.00;;;2.60;99.90;;;;;;5034594;28;20021;-73
2021/11/13 01:58:20;;;;;;;89.10;27.50;;;2.70;99.90;;;;;;5034651;28;20040;-73
2021/11/13 02:00:50;;;;;;;111.63;31.13;;;2.70;99.90;;;;;;5034501;28;20497;-73
2021/11/13 02:03:17;;;;;;;87.60;29.92;;;2.70;99.90;;;;;;5034710;28;20104;-73
2021/11/13 02:05:42;;;;;;;109.22;33.72;;;2.60;99.90;;;;;;5034366;28;20022;-73
2021/11/13 02:08:08;;;;;;;102.55;32.30;;;2.70;99.90;;;;;;5034475;28;20033;-74
2021/11/13 02:10:34;;;;;;;95.65;31.30;;;2.70;99.90;;;;;;5034175;28;20034;-74
2021/11/13 02:13:00;;;;;;;94.72;30.85;;;2.70;99.90;;;;;;5022614;28;20026;-73
2021/11/13 02:15:26;;;;;;;110.43;31.70;;;2.60;99.90;;;;;;5014486;28;20144;-73
2021/11/13 02:17:55;;;;;;;94.95;28.02;;;2.60;99.90;;;;;;5014516;28;20458;-73
2021/11/13 02:20:53;;;;;;;92.85;27.80;;;2.50;99.90;;;;;;5013122;28;20026;-74
2021/11/13 02:23:22;;;;;;;103.18;28.77;;;2.50;99.90;;;;;;5014150;28;20042;-73
2021/11/13 02:25:50;;;;;;;98.45;32.00;;;2.50;99.90;;;;;;5014203;28;20026;-73
2021/11/13 02:28:19;;;;;;;89.38;28.27;;;2.50;99.90;;;;;;5014381;28;20103;-73
2021/11/13 02:30:46;;;;;;;84.90;28.80;;;2.40;99.90;;;;;;5014205;28;20029;-74
2021/11/13 02:33:13;;;;;;;93.10;28.02;;;2.40;99.90;;;;;;5014209;28;20049;-74
2021/11/13 02:35:40;;;;;;;89.32;28.40;;;2.50;99.90;;;;;;5012848;28;20049;-73
2021/11/13 02:38:19;;;;;;;80.50;29.20;;;2.50;99.90;;;;;;5014162;28;20446;-73
2021/11/13 02:40:55;;;;;;;110.03;32.83;;;2.50;99.90;;;;;;5012584;28;20029;-73
2021/11/13 02:43:22;;;;;;;87.63;29.83;;;2.50;99.90;;;;;;5014481;28;20041;-74
2021/11/13 02:45:50;;;;;;;84.03;27.52;;;2.60;99.90;;;;;;5033658;28;20018;-73
2021/11/13 02:48:16;;;;;;;114.65;32.15;;;2.50;99.90;;;;;;5032459;28;20030;-74
2021/11/13 02:50:44;;;;;;;117.88;31.20;;;2.50;99.90;;;;;;5032272;28;20021;-74
2021/11/13 02:53:16;;;;;;;90.65;29.08;;;2.40;99.90;;;;;;5033660;28;20483;-74
2021/11/13 02:55:41;;;;;;;90.03;27.40;;;2.40;99.90;;;;;;5033490;28;20463;-74
2021/11/13 02:58:08;;;;;;;103.80;30.40;;;2.40;99.90;;;;;;5033549;28;20079;-73
2021/11/13 03:00:35;;;;;;;94.55;29.05;;;2.40;99.90;;;;;;5033323;28;20097;-74
2021/11/13 03:03:01;;;;;;;92.15;27.92;;;2.40;99.90;;;;;;5033435;28;20017;-73
2021/11/13 03:05:32;;;;;;;116.68;31.67;;;2.30;99.90;;;;;;5032051;28;20032;-73
2021/11/13 03:08:00;;;;;;;88.22;26.02;;;2.30;99.90;;;;;;5033413;28;20033;-73
2021/11/13 03:10:32;;;;;;;112.97;30.90;;;2.30;99.90;;;;;;5033037;28;20042;-74
2021/11/13 03:12:57;;;;;;;90.45;30.38;;;2.30;99.90;;;;;;5033163;28;20437;-74
2021/11/13 03:15:24;;;;;;;115.05;33.63;;;2.30;99.90;;;;;;5033223;28;20021;-74
2021/11/13 03:17:52;;;;;;;142.57;32.22;;;2.30;99.90;;;;;;5033228;28;20021;-74
2021/11/13 03:20:21;;;;;;;106.65;31.67;;;2.30;99.90;;;;;;5033099;28;20064;-74
2021/11/13 03:22:47;;;;;;;85.78;29.80;;;2.40;99.90;;;;;;5033107;28;20095;-74
2021/11/13 03:25:16;;;;;;;108.57;27.75;;;2.40;99.90;;;;;;5033112;28;20026;-74
2021/11/13 03:27:50;;;;;;;96.35;30.27;;;2.30;99.90;;;;;;5032997;28;20183;-74
2021/11/13 03:30:16;;;;;;;97.85;27.05;;;2.30;99.90;;;;;;5033022;28;20032;-74
2021/11/13 03:32:42;;;;;;;115.82;31.77;;;2.30;99.90;;;;;;5031663;28;20041;-74
2021/11/13 03:35:09;;;;;;;99.07;29.30;;;2.20;99.90;;;;;;5031751;28;20040;-74
2021/11/13 03:37:35;;;;;;;77.65;26.08;;;2.20;99.90;;;;;;5031659;28;20457;-73
2021/11/13 03:40:01;;;;;;;117.72;28.08;;;2.20;99.90;;;;;;5032800;28;20116;-73
2021/11/13 03:42:30;;;;;;;114.55;34.70;;;2.20;99.90;;;;;;5031558;28;20021;-73
2021/11/13 03:44:57;;;;;;;103.22;27.77;;;2.20;99.90;;;;;;5032728;28;20018;-73
2021/11/13 03:47:23;;;;;;;103.20;28.02;;;2.20;99.90;;;;;;5032856;28;20432;-73
2021/11/13 03:49:48;;;;;;;116.57;32.30;;;2.20;99.90;;;;;;5031500;28;20064;-73
2021/11/13 03:52:14;;;;;;;87.13;29.10;;;2.20;99.90;;;;;;5033429;28;20022;-73
2021/11/13 03:54:40;;;;;;;82.65;27.45;;;2.20;99.90;;;;;;5035523;28;20030;-73
2021/11/13 03:57:06;;;;;;;93.65;26.77;;;2.30;99.90;;;;;;5036905;28;20029;-73
2021/11/13 03:59:32;;;;;;;100.78;29.70;;;2.30;99.90;;;;;;5036827;28;20018;-74
2021/11/13 04:01:59;;;;;;;101.10;28.90;;;2.30;99.90;;;;;;5036827;28;20021;-74
2021/11/13 04:04:25;;;;;;;81.85;25.77;;;2.30;99.90;;;;;;5036753;28;20026;-74
2021/11/13 04:06:50;;;;;;;81.35;26.85;;;2.20;99.90;;;;;;5036657;28;20018;-74
2021/11/13 04:09:16;;;;;;;96.85;29.17;;;2.20;99.90;;;;;;5036619;28;20013;-74
2021/11/13 04:11:42;;;;;;;121.53;31.63;;;2.10;99.90;;;;;;5035421;28;20018;-73
2021/11/13 04:14:08;;;;;;;96.28;27.80;;;2.10;99.90;;;;;;5035175;28;20079;-73
2021/11/13 04:16:34;;;;;;;97.50;29.27;;;2.20;99.90;;;;;;5036591;28;20417;-74
2021/11/13 04:18:59;;;;;;;88.45;28.58;;;2.20;99.90;;;;;;5035220;28;20025;-74
2021/11/13 04:21:25;;;;;;;89.95;28.33;;;2.20;99.90;;;;;;5036448;28;20132;-73
2021/11/13 04:23:52;;;;;;;86.35;26.55;;;2.20;99.90;;;;;;5036448;28;20025;-74
2021/11/13 04:26:18;;;;;;;90.15;28.10;;;2.20;99.90;;;;;;5036378;28;20049;-73
2021/11/13 04:28:44;;;;;;;79.53;25.60;;;2.20;99.90;;;;;;5036293;28;20463;-73
2021/11/13 04:31:09;;;;;;;106.88;31.67;;;2.10;99.90;;;;;;5036279;28;20075;-73
2021/11/13 04:33:35;;;;;;;83.40;26.55;;;2.20;99.90;;;;;;5036145;28;20034;-74
2021/11/13 04:38:31;;;;;;;99.57;25.30;;;2.10;99.90;;;;;;5036174;28;20439;-73
2021/11/13 04:40:57;;;;;;;92.93;28.40;;;2.10;99.90;;;;;;5036034;28;20022;-73
2021/11/13 04:43:23;;;;;;;89.32;27.08;;;2.10;99.90;;;;;;5036118;28;20449;-73
2021/11/13 04:45:49;;;;;;;80.18;26.75;;;2.10;99.90;;;;;;5035932;28;20057;-74
2021/11/13 04:48:14;;;;;;;80.13;26.30;;;2.00;99.90;;;;;;5036070;28;20075;-74
2021/11/13 04:50:40;;;;;;;79.75;27.40;;;2.00;99.90;;;;;;5034569;28;20513;-74
2021/11/13 04:53:06;;;;;;;75.32;25.85;;;2.00;99.90;;;;;;5035842;28;20037;-73
2021/11/13 04:55:32;;;;;;;99.78;28.48;;;2.00;99.90;;;;;;5035781;28;20037;-74
2021/11/13 04:57:58;;;;;;;93.55;28.17;;;2.10;99.90;;;;;;5035757;28;20096;-74
2021/11/13 05:00:28;;;;;;;82.43;26.67;;;2.10;99.90;;;;;;5035635;28;20510;-74
2021/11/13 05:02:54;;;;;;;106.38;28.38;;;2.10;99.90;;;;;;5035635;28;20021;-74
2021/11/13 05:05:21;;;;;;;99.00;30.95;;;2.10;99.90;;;;;;5035701;28;20541;-74
2021/11/13 05:07:47;;;;;;;96.00;27.60;;;2.10;99.90;;;;;;5035447;28;20021;-74
2021/11/13 05:10:13;;;;;;;85.10;28.75;;;2.10;99.90;;;;;;5034246;28;20033;-74
2021/11/13 05:12:40;;;;;;;97.00;26.63;;;2.20;99.90;;;;;;5034167;28;20533;-74
2021/11/13 05:15:07;;;;;;;65.50;22.60;;;2.20;99.90;;;;;;5034163;28;20083;-73
2021/11/13 05:17:32;;;;;;;79.93;26.15;;;2.10;99.90;;;;;;5035447;28;20021;-73
2021/11/13 05:19:58;;;;;;;80.70;25.35;;;2.00;99.90;;;;;;5034062;28;20080;-73
2021/11/13 05:22:24;;;;;;;70.15;26.08;;;2.00;99.90;;;;;;5035343;28;20471;-73
2021/11/13 05:24:50;;;;;;;85.55;26.50;;;2.00;99.90;;;;;;5035241;28;20079;-73
2021/11/13 05:27:16;;;;;;;95.70;30.67;;;2.00;99.90;;;;;;5035333;28;20072;-73
2021/11/13 05:29:41;;;;;;;79.50;29.95;;;2.00;99.90;;;;;;5035073;28;20407;-73
2021/11/13 05:32:08;;;;;;;88.90;28.80;;;2.00;99.90;;;;;;5035172;28;20021;-74
2021/11/13 05:34:34;;;;;;;80.85;26.40;;;2.10;99.90;;;;;;5034982;28;20038;-74
2021/11/13 05:37:00;;;;;;;77.57;27.17;;;2.10;99.90;;;;;;5035012;28;20052;-73
2021/11/13 05:39:25;;;;;;;81.70;24.52;;;2.10;99.90;;;;;;5034984;28;20104;-73
2021/11/13 05:41:51;;;;;;;82.65;26.15;;;2.10;99.90;;;;;;5034989;28;20427;-73
2021/11/13 05:44:17;;;;;;;75.90;25.83;;;2.10;99.90;;;;;;5034954;28;20052;-73
2021/11/13 05:46:43;;;;;;;81.63;28.63;;;2.10;99.90;;;;;;5034834;28;20387;-73
2021/11/13 05:49:08;;;;;;;59.95;22.13;;;2.10;99.90;;;;;;5034825;28;20026;-73
2021/11/13 05:51:34;;;;;;;86.68;24.52;;;2.00;99.90;;;;;;5033542;28;20021;-73
2021/11/13 05:54:00;;;;;;;76.93;26.90;;;2.00;99.90;;;;;;5034634;28;20034;-74
2021/11/13 05:56:26;;;;;;;78.15;24.65;;;2.00;99.90;;;;;;5034730;28;20061;-73
2021/11/13 05:58:51;;;;;;;77.22;25.60;;;2.00;99.90;;;;;;5034856;28;20024;-73
2021/11/13 06:01:17;;;;;;;86.45;26.35;;;2.00;99.90;;;;;;5033407;28;20382;-73
2021/11/13 06:03:43;;;;;;;92.03;28.02;;;2.00;99.90;;;;;;5033321;28;20498;-74
2021/11/13 06:06:08;;;;;;;77.97;28.02;;;2.00;99.90;;;;;;5034412;28;20101;-73
2021/11/13 06:08:34;;;;;;;72.25;27.58;;;2.00;99.90;;;;;;5034391;28;20391;-73
2021/11/13 06:11:00;;;;;;;80.82;25.27;;;2.00;99.90;;;;;;5033010;28;20467;-73
2021/11/13 06:13:25;;;;;;;95.10;29.17;;;2.10;99.90;;;;;;5034375;28;20037;-74
2021/11/13 06:15:51;;;;;;;67.40;25.52;;;2.10;99.90;;;;;;5032487;28;20037;-74
2021/11/13 06:18:17;;;;;;;94.85;28.65;;;2.10;99.90;;;;;;5034356;28;20104;-73
2021/11/13 06:20:42;;;;;;;107.80;29.90;;;2.10;99.90;;;;;;5032910;28;20116;-73
2021/11/13 06:23:09;;;;;;;71.35;25.70;;;2.20;99.90;;;;;;5034184;28;20018;-73
2021/11/13 06:25:35;;;;;;;69.63;24.92;;;2.10;99.90;;;;;;5034158;28;20026;-73
2021/11/13 06:28:00;;;;;;;81.55;26.73;;;2.20;99.90;;;;;;5032873;28;20037;-73
2021/11/13 06:30:28;;;;;;;71.07;24.13;;;2.20;99.90;;;;;;5033946;28;20037;-73
2021/11/13 06:32:55;;;;;;;77.20;26.10;;;2.10;99.90;;;;;;5032636;28;20478;-74
2021/11/13 06:35:21;;;;;;;75.28;24.60;;;2.10;99.90;;;;;;5033962;28;20044;-73
2021/11/13 06:37:47;;;;;;;75.85;26.02;;;2.00;99.90;;;;;;5032624;28;20475;-73
2021/11/13 06:40:14;;;;;;;83.85;28.48;;;2.00;99.90;;;;;;5033828;28;20028;-73
2021/11/13 06:42:40;;;;;;;77.22;26.52;;;2.00;99.90;;;;;;5033807;28;20036;-73
2021/11/13 06:45:07;;;;;;;85.90;27.25;;;1.90;99.90;;;;;;5033266;28;20510;-73
2021/11/13 06:47:33;;;;;;;80.38;27.00;;;1.90;99.90;;;;;;5030862;28;20372;-73
2021/11/13 06:49:59;;;;;;;103.07;31.70;;;1.90;99.90;;;;;;5033605;28;20035;-73
2021/11/13 06:52:25;;;;;;;70.95;27.58;;;1.90;99.90;;;;;;5033665;28;20113;-73
2021/11/13 06:54:51;;;;;;;93.05;34.30;;;1.90;99.90;;;;;;5033494;28;20510;-73
2021/11/13 06:57:16;;;;;;;66.38;28.88;;;2.00;99.90;;;;;;5033547;28;20435;-73
2021/11/13 06:59:42;;;;;;;79.72;28.88;;;2.00;99.90;;;;;;5033401;28;20025;-73
2021/11/13 07:02:08;;;;;;;80.95;28.27;;;2.00;99.90;;;;;;5033526;28;20030;-73
2021/11/13 07:04:34;;;;;;;73.65;28.52;;;2.00;99.90;;;;;;5032890;28;20021;-73
2021/11/13 07:06:59;;;;;;;81.97;28.85;;;2.00;99.90;;;;;;5032859;28;20396;-73
2021/11/13 07:09:25;;;;;;;84.32;29.48;;;2.10;99.90;;;;;;5032897;28;20037;-73
2021/11/13 07:11:51;;;;;;;70.03;27.98;;;2.10;99.90;;;;;;5031305;28;20028;-74
2021/11/13 07:14:17;;;;;;;81.05;31.17;;;2.00;99.90;;;;;;5033200;28;20073;-73
2021/11/13 07:16:43;;;;;;;95.68;32.45;;;2.00;99.90;;;;;;5033187;28;20079;-73
2021/11/13 07:19:09;;;;;;;63.65;25.08;;;2.00;99.90;;;;;;5031140;28;20025;-73
2021/11/13 07:21:35;;;;;;;77.68;25.65;;;2.00;99.90;;;;;;5033052;28;20053;-73
2021/11/13 07:24:01;;;;;;;82.45;27.23;;;2.00;99.90;;;;;;5029116;28;20072;-73
2021/11/13 07:26:27;;;;;;;77.07;26.20;;;2.00;99.90;;;;;;5012918;28;20080;-73
2021/11/13 07:29:00;;;;;;;73.00;24.08;;;2.00;99.90;;;;;;5012936;28;20076;-73
2021/11/13 07:31:26;;;;;;;;;;;2.00;99.90;;;;;;5012466;28;20022;-73
2021/11/13 07:33:53;;;;;;;73.97;32.08;;;2.00;99.90;;;;;;5013194;28;19913;-73
2021/11/13 07:36:19;;;;;;;85.50;35.30;;;2.00;99.90;;;;;;5019735;28;20068;-73
2021/11/13 07:38:46;;;;;;;87.30;33.13;;;2.10;99.90;;;;;;5032936;28;20013;-73
2021/11/13 07:41:11;;;;;;;68.82;26.70;;;2.20;99.90;;;;;;5032894;28;20387;-73
2021/11/13 07:43:39;;;;;;;93.50;28.15;;;2.10;99.90;;;;;;5032853;28;20087;-73
2021/11/13 07:46:05;;;;;;;76.22;27.40;;;2.20;99.90;;;;;;5032787;28;20029;-73
2021/11/13 07:48:31;;;;;;;86.93;31.20;;;2.20;99.90;;;;;;5032808;28;20036;-73
2021/11/13 07:50:57;;;;;;;92.93;30.98;;;2.30;99.90;;;;;;5030567;28;20021;-74
2021/11/13 07:53:23;;;;;;;92.03;31.75;;;2.30;99.90;;;;;;5030399;28;20084;-73
2021/11/13 07:55:49;;;;;;;92.70;29.63;;;2.40;99.90;;;;;;5031330;28;20044;-73
2021/11/13 07:58:16;;;;;;;95.22;31.73;;;2.40;99.90;;;;;;5032795;28;20078;-73
2021/11/13 08:00:43;;;;;;;74.28;31.10;;;2.50;99.90;;;;;;5032196;28;20542;-73
2021/11/13 08:03:09;;;;;;;94.55;30.13;;;2.50;99.90;;;;;;5031426;28;20033;-73
2021/11/13 08:05:35;;;;;;;92.15;30.67;;;2.50;99.90;;;;;;5031920;28;20467;-73
2021/11/13 08:08:00;;;;;;;79.40;32.85;;;2.50;99.90;;;;;;5032666;28;20025;-73
2021/11/13 08:10:26;;;;;;;88.88;29.23;;;2.60;99.90;;;;;;5032708;28;20025;-73
2021/11/13 08:12:52;;;;;;;94.72;31.60;;;2.60;99.90;;;;;;5031154;28;20045;-73
2021/11/13 08:15:18;;;;;;;94.35;31.50;;;2.60;99.90;;;;;;5032567;28;20037;-73
2021/11/13 08:17:44;;;;;;;82.00;31.00;;;2.70;99.90;;;;;;5031277;28;20029;-73
2021/11/13 08:20:12;;;;;;;88.50;33.80;;;2.60;99.90;;;;;;5031135;28;20390;-73
2021/11/13 08:22:41;;;;;;;77.63;31.58;;;2.70;99.90;;;;;;5032479;28;20040;-73
2021/11/13 08:25:08;;;;;;;75.15;29.65;;;2.70;99.90;;;;;;5032563;28;20032;-73
2021/11/13 08:27:35;;;;;;;90.22;31.58;;;2.70;99.90;;;;;;5032441;28;20017;-73
2021/11/13 08:30:01;;;;;;;79.47;29.42;;;2.80;99.90;;;;;;5032394;28;20563;-73
2021/11/13 08:32:27;;;;;;;84.93;31.83;;;2.80;99.90;;;;;;5032340;28;20022;-73
2021/11/13 08:34:53;;;;;;;98.20;34.05;;;2.80;99.90;;;;;;5031028;28;20529;-73
2021/11/13 08:37:18;;;;;;;94.25;34.58;;;2.80;99.90;;;;;;5032459;28;20026;-73
2021/11/13 08:39:44;;;;;;;101.90;36.80;;;2.80;99.90;;;;;;5035025;28;20029;-73
2021/11/13 08:42:14;;;;;;;94.15;33.97;;;2.90;99.90;;;;;;5036102;28;20494;-73
2021/11/13 08:44:43;;;;;;;97.88;34.10;;;2.90;99.90;;;;;;5035759;28;20017;-73
2021/11/13 08:47:10;;;;;;;100.43;35.95;;;3.00;99.90;;;;;;5036020;28;20025;-73
2021/11/13 08:49:43;;;;;;;100.70;35.60;;;3.10;99.90;;;;;;5035879;28;20024;-73
2021/11/13 08:52:12;;;;;;;83.57;35.05;;;3.10;99.90;;;;;;5036038;28;20022;-73
2021/11/13 08:54:37;;;;;;;78.78;28.90;;;3.10;99.90;;;;;;5035633;28;20037;-73
2021/11/13 08:57:04;;;;;;;85.20;33.05;;;3.20;99.90;;;;;;5034541;28;20033;-73
2021/11/13 08:59:31;;;;;;;87.47;36.00;;;3.30;99.90;;;;;;5035652;28;20022;-73
2021/11/13 09:01:59;;;;;;;93.35;37.70;;;3.40;99.90;;;;;;5035697;28;20080;-73
2021/11/13 09:04:26;;;;;;;98.25;35.13;;;3.50;99.90;;;;;;5035582;28;20099;-73
2021/11/13 09:06:52;;;;;;;87.45;31.92;;;3.50;99.90;;;;;;5034297;28;20014;-73
2021/11/13 09:09:18;;;;;;;87.13;32.47;;;3.60;99.90;;;;;;5035462;28;20344;-73
2021/11/13 09:11:44;;;;;;;79.05;29.98;;;3.60;99.90;;;;;;5035460;28;20061;-73
2021/11/13 09:14:14;;;;;;;79.28;28.92;;;3.70;99.90;;;;;;5035291;28;20065;-73
2021/11/13 09:16:40;;;;;;;82.88;30.17;;;3.80;99.90;;;;;;5035406;28;20017;-73
2021/11/13 09:19:07;;;;;;;73.05;32.97;;;3.90;99.90;;;;;;5035440;28;20068;-73
2021/11/13 09:21:33;;;;;;;78.82;30.48;;;4.00;99.90;;;;;;5035150;28;20037;-73
2021/11/13 09:24:00;;;;;;;68.15;28.63;;;4.00;99.90;;;;;;5035331;28;20032;-73
2021/11/13 09:26:27;;;;;;;77.22;28.95;;;4.10;99.90;;;;;;5035180;28;20424;-73
2021/11/13 09:28:53;;;;;;;84.35;33.85;;;4.10;99.90;;;;;;5035167;28;20021;-73
2021/11/13 09:31:19;;;;;;;81.78;32.65;;;4.20;99.90;;;;;;5035173;28;20475;-74
2021/11/13 09:33:45;;;;;;;80.97;34.88;;;4.20;99.90;;;;;;5035062;28;20044;-73
2021/11/13 09:36:10;;;;;;;87.88;31.65;;;4.30;99.90;;;;;;5033856;28;20120;-73
2021/11/13 09:38:44;;;;;;;84.25;35.22;;;4.40;99.90;;;;;;5034938;28;20022;-73
2021/11/13 09:41:11;;;;;;;78.63;33.35;;;4.40;99.90;;;;;;5033745;28;20502;-73
2021/11/13 09:43:38;;;;;;;69.20;29.27;;;4.40;99.90;;;;;;5034946;28;20056;-73
2021/11/13 09:46:07;;;;;;;62.63;28.33;;;4.50;99.90;;;;;;5034929;28;20501;-74
2021/11/13 09:48:34;;;;;;;72.47;29.42;;;4.50;99.90;;;;;;5034804;28;20037;-74
2021/11/13 09:51:01;;;;;;;70.32;30.25;;;4.50;99.90;;;;;;5033882;28;20065;-73
2021/11/13 09:53:28;;;;;;;68.88;30.38;;;4.60;99.90;;;;;;5034708;28;20037;-73
2021/11/13 09:55:55;;;;;;;80.40;33.08;;;4.40;99.90;;;;;;5034736;28;20059;-73
2021/11/13 09:58:22;;;;;;;73.30;28.73;;;4.40;99.90;;;;;;5034643;28;20025;-73
2021/11/13 10:00:49;;;;;;;70.72;30.40;;;4.40;99.90;;;;;;5033321;28;20027;-73
2021/11/13 10:03:18;;;;;;;71.88;29.98;;;4.40;99.90;;;;;;5034663;28;20383;-73
2021/11/13 10:05:46;;;;;;;71.07;31.48;;;4.40;99.90;;;;;;5034392;28;20032;-73
2021/11/13 10:08:12;;;;;;;73.13;30.45;;;4.50;99.90;;;;;;5034512;28;20021;-73
2021/11/13 10:10:40;;;;;;;75.90;31.33;;;4.50;99.90;;;;;;5034221;28;20099;-73
2021/11/13 10:13:42;;;;;;;66.25;28.38;;;4.50;99.90;;;;;;5034260;28;20033;-73
2021/11/13 10:16:18;;;;;;;70.93;29.63;;;4.50;99.90;;;;;;5034354;28;20025;-74
2021/11/13 10:18:50;;;;;;;66.97;28.50;;;4.60;99.90;;;;;;5034243;28;20026;-74
2021/11/13 10:21:23;;;;;;;70.93;31.17;;;4.60;99.90;;;;;;5034420;28;20030;-74
2021/11/13 10:23:59;;;;;;;76.00;29.27;;;4.60;99.90;;;;;;5034255;28;20059;-73
2021/11/13 10:26:35;;;;;;;73.97;30.42;;;4.60;99.90;;;;;;5034174;28;20021;-72
2021/11/13 10:29:17;;;;;;;67.55;28.85;;;4.60;99.90;;;;;;5032849;28;20080;-73
2021/11/13 10:31:49;;;;;;;71.15;28.60;;;4.60;99.90;;;;;;5034130;28;20044;-73
2021/11/13 10:34:19;;;;;;;71.90;29.42;;;4.70;99.90;;;;;;5033998;28;20562;-73
2021/11/13 10:36:51;;;;;;;61.00;26.90;;;4.70;99.90;;;;;;5033917;28;20022;-73
2021/11/13 10:39:23;;;;;;;72.53;28.70;;;4.70;99.90;;;;;;5033994;28;20083;-73
2021/11/13 10:42:00;;;;;;;;;;;4.70;99.90;;;;;;5034336;28;20429;-73
2021/11/13 10:44:33;;;;;;;62.05;27.95;;;4.70;99.90;;;;;;5033765;28;20377;-74
2021/11/13 10:47:01;;;;;;;66.82;27.77;;;4.70;99.90;;;;;;5032876;28;20352;-73
2021/11/13 10:49:28;;;;;;;63.45;28.65;;;4.70;99.90;;;;;;5033682;28;20052;-73
2021/11/13 10:51:59;;;;;;;57.45;26.67;;;4.70;99.90;;;;;;5033659;28;20097;-74
2021/11/13 10:54:25;;;;;;;74.43;30.83;;;4.70;99.90;;;;;;5033523;28;20509;-74
2021/11/13 10:57:01;;;;;;;64.32;26.67;;;4.70;99.90;;;;;;5033599;28;20026;-74
2021/11/13 10:59:28;;;;;;;73.18;31.42;;;4.80;99.90;;;;;;5033385;28;20079;-74
2021/11/13 11:01:58;;;;;;;70.07;30.40;;;4.80;99.90;;;;;;5033267;28;20104;-74
2021/11/13 11:04:26;;;;;;;68.00;30.85;;;4.70;99.90;;;;;;5033142;28;20018;-74
2021/11/13 11:07:02;;;;;;;74.85;31.20;;;4.80;99.90;;;;;;5032945;28;20026;-74
2021/11/13 11:09:34;;;;;;;71.78;29.48;;;4.80;99.90;;;;;;5033357;28;20037;-74
2021/11/13 11:12:07;;;;;;;73.80;31.67;;;4.80;99.90;;;;;;5033336;28;20100;-74
2021/11/13 11:14:33;;;;;;;;;;;4.90;99.90;;;;;;5032316;28;20030;-74
2021/11/13 11:17:04;;;;;;;66.55;28.55;;;4.80;99.90;;;;;;5033248;28;19912;-74
2021/11/13 11:19:35;;;;;;;61.10;27.98;;;4.90;99.90;;;;;;5033148;28;20048;-74
2021/11/13 11:22:28;;;;;;;63.55;26.25;;;4.90;99.90;;;;;;5033250;28;20439;-74
2021/11/13 11:24:55;;;;;;;61.17;28.75;;;4.90;99.90;;;;;;5033173;28;20471;-74
2021/11/13 11:27:27;;;;;;;62.60;28.80;;;4.90;99.90;;;;;;5033072;28;20021;-74
2021/11/13 11:30:08;;;;;;;70.60;29.77;;;4.90;99.90;;;;;;5031844;28;20029;-73
2021/11/13 11:32:40;;;;;;;66.32;28.20;;;4.90;99.90;;;;;;5033059;28;20426;-73
2021/11/13 11:35:11;;;;;;;71.68;28.63;;;4.90;99.90;;;;;;5031764;28;20461;-73
2021/11/13 11:37:43;;;;;;;64.65;30.63;;;4.90;99.90;;;;;;5033022;28;20459;-73
2021/11/13 11:40:18;;;;;;;72.30;29.15;;;5.00;99.90;;;;;;5032943;28;20022;-73
2021/11/13 11:42:47;;;;;;;73.60;32.40;;;5.00;99.90;;;;;;5032939;28;20063;-74
2021/11/13 11:45:16;;;;;;;76.10;32.25;;;5.00;99.90;;;;;;5031656;28;20029;-73
2021/11/13 11:47:44;;;;;;;69.97;29.23;;;5.00;99.90;;;;;;5026769;28;20028;-73
2021/11/13 11:50:13;;;;;;;69.95;30.45;;;4.90;99.90;;;;;;5031582;28;20029;-74
2021/11/13 11:52:41;;;;;;;81.78;35.22;;;4.90;99.90;;;;;;5032830;28;20071;-74
2021/11/13 11:55:09;;;;;;;73.65;28.60;;;4.90;99.90;;;;;;5031950;28;20021;-74
2021/11/13 11:57:40;;;;;;;74.97;31.90;;;4.80;99.90;;;;;;5030362;28;20065;-74
2021/11/13 12:00:19;;;;;;;77.53;32.08;;;4.90;99.90;;;;;;5032121;28;20025;-74
2021/11/13 12:02:54;;;;;;;71.07;31.50;;;4.90;99.90;;;;;;5032743;28;20386;-74
2021/11/13 12:05:28;;;;;;;72.65;31.95;;;4.90;99.90;;;;;;5031488;28;20026;-74
2021/11/13 12:07:55;;;;;;;78.80;32.38;;;4.90;99.90;;;;;;5032651;28;20438;-74
2021/11/13 12:10:28;;;;;;;81.43;33.65;;;4.90;99.90;;;;;;5032416;28;20125;-74
2021/11/13 12:13:04;;;;;;;76.35;30.00;;;4.90;99.90;;;;;;5032533;28;20475;-74
2021/11/13 12:15:47;;;;;;;72.78;31.00;;;4.90;99.90;;;;;;5036506;28;20049;-74
2021/11/13 12:18:13;;;;;;;65.47;29.30;;;4.90;99.90;;;;;;5036604;28;20061;-73
2021/11/13 12:20:38;;;;;;;72.68;31.02;;;4.90;99.90;;;;;;5036374;28;20467;-74
2021/11/13 12:23:16;;;;;;;67.63;30.83;;;4.90;99.90;;;;;;5036487;28;20479;-74
2021/11/13 12:26:00;;;;;;;70.50;28.80;;;4.90;99.90;;;;;;5036347;28;20082;-74
2021/11/13 12:28:26;;;;;;;65.07;29.15;;;4.80;99.90;;;;;;5034246;28;20087;-74
2021/11/13 12:31:04;;;;;;;67.32;29.65;;;4.80;99.90;;;;;;5036328;28;20042;-74
2021/11/13 12:33:30;;;;;;;65.03;28.00;;;4.80;99.90;;;;;;5036280;28;20044;-74
2021/11/13 12:36:01;;;;;;;60.38;26.55;;;4.80;99.90;;;;;;5036161;28;20037;-74
2021/11/13 12:38:52;;;;;;;71.60;28.88;;;4.80;99.90;;;;;;5034921;28;20026;-74
2021/11/13 12:41:35;;;;;;;61.17;26.50;;;4.80;99.90;;;;;;5036134;28;20032;-74